sensor_id;sensor_type;location;lat;lon;timestamp;temperature;humidity
23100;DHT22;53791;50.696;4.396;2022-07-04T00:01:07;14.50;99.90
23100;DHT22;53791;50.696;4.396;2022-07-04T00:03:35;14.40;99.90
23100;DHT22;53791;50.696;4.396;2022-07-04T00:06:02;14.40;99.90
23100;DHT22;53791;50.696;4.396;2022-07-04T00:08:30;14.40;99.90
23100;DHT22;53791;50.696;4.396;2022-07-04T00:10:58;14.30;99.90
23100;DHT22;53791;50.696;4.396;2022-07-04T00:13:25;14.20;99.90
23100;DHT22;53791;50.696;4.396;2022-07-04T00:15:53;14.20;99.90
23100;DHT22;53791;50.696;4.396;2022-07-04T00:18:21;14.20;99.90
23100;DHT22;53791;50.696;4.396;2022-07-04T00:20:48;14.10;99.90
23100;DHT22;53791;50.696;4.396;2022-07-04T00:23:16;14.10;99.90
23100;DHT22;53791;50.696;4.396;2022-07-04T00:25:43;13.90;99.90
23100;DHT22;53791;50.696;4.396;2022-07-04T00:28:11;14.10;99.90
23100;DHT22;53791;50.696;4.396;2022-07-04T00:30:38;14.00;99.90
23100;DHT22;53791;50.696;4.396;2022-07-04T00:33:10;14.00;99.90
23100;DHT22;53791;50.696;4.396;2022-07-04T00:35:36;14.00;99.90
23100;DHT22;53791;50.696;4.396;2022-07-04T00:38:04;14.00;99.90
23100;DHT22;53791;50.696;4.396;2022-07-04T00:40:31;14.10;99.90
23100;DHT22;53791;50.696;4.396;2022-07-04T00:43:03;14.00;99.90
23100;DHT22;53791;50.696;4.396;2022-07-04T00:45:31;14.00;99.90
23100;DHT22;53791;50.696;4.396;2022-07-04T00:47:58;13.90;99.90
23100;DHT22;53791;50.696;4.396;2022-07-04T00:50:26;13.90;99.90
23100;DHT22;53791;50.696;4.396;2022-07-04T00:52:54;13.80;99.90
23100;DHT22;53791;50.696;4.396;2022-07-04T00:55:23;13.80;99.90
23100;DHT22;53791;50.696;4.396;2022-07-04T00:57:52;13.80;99.90
23100;DHT22;53791;50.696;4.396;2022-07-04T01:00:19;13.80;99.90
23100;DHT22;53791;50.696;4.396;2022-07-04T01:02:47;13.80;99.90
23100;DHT22;53791;50.696;4.396;2022-07-04T01:05:15;13.80;99.90
23100;DHT22;53791;50.696;4.396;2022-07-04T01:07:43;13.70;99.90
23100;DHT22;53791;50.696;4.396;2022-07-04T01:10:11;13.70;99.90
23100;DHT22;53791;50.696;4.396;2022-07-04T01:12:39;13.60;99.90
23100;DHT22;53791;50.696;4.396;2022-07-04T01:15:07;13.60;99.90
23100;DHT22;53791;50.696;4.396;2022-07-04T01:17:35;13.60;99.90
23100;DHT22;53791;50.696;4.396;2022-07-04T01:20:03;13.50;99.90
23100;DHT22;53791;50.696;4.396;2022-07-04T01:22:31;13.60;99.90
23100;DHT22;53791;50.696;4.396;2022-07-04T01:24:59;13.50;99.90
23100;DHT22;53791;50.696;4.396;2022-07-04T01:27:26;13.50;99.90
23100;DHT22;53791;50.696;4.396;2022-07-04T01:29:53;13.50;99.90
23100;DHT22;53791;50.696;4.396;2022-07-04T01:32:21;13.40;99.90
23100;DHT22;53791;50.696;4.396;2022-07-04T01:34:48;13.40;99.90
23100;DHT22;53791;50.696;4.396;2022-07-04T01:37:16;13.40;99.90
23100;DHT22;53791;50.696;4.396;2022-07-04T01:39:43;13.40;99.90
23100;DHT22;53791;50.696;4.396;2022-07-04T01:42:11;13.30;99.90
23100;DHT22;53791;50.696;4.396;2022-07-04T01:44:38;13.20;99.90
23100;DHT22;53791;50.696;4.396;2022-07-04T01:47:06;13.20;99.90
23100;DHT22;53791;50.696;4.396;2022-07-04T01:49:34;13.30;99.90
23100;DHT22;53791;50.696;4.396;2022-07-04T01:52:02;13.20;99.90
23100;DHT22;53791;50.696;4.396;2022-07-04T01:54:30;13.10;99.90
23100;DHT22;53791;50.696;4.396;2022-07-04T01:56:57;13.10;99.90
23100;DHT22;53791;50.696;4.396;2022-07-04T01:59:25;13.10;99.90
23100;DHT22;53791;50.696;4.396;2022-07-04T02:01:54;12.80;99.90
23100;DHT22;53791;50.696;4.396;2022-07-04T02:04:21;13.00;99.90
23100;DHT22;53791;50.696;4.396;2022-07-04T02:06:49;12.90;99.90
23100;DHT22;53791;50.696;4.396;2022-07-04T02:09:16;13.00;99.90
23100;DHT22;53791;50.696;4.396;2022-07-04T02:11:45;13.00;99.90
23100;DHT22;53791;50.696;4.396;2022-07-04T02:14:32;13.00;99.90
23100;DHT22;53791;50.696;4.396;2022-07-04T02:17:01;12.90;99.90
23100;DHT22;53791;50.696;4.396;2022-07-04T02:19:28;12.90;99.90
23100;DHT22;53791;50.696;4.396;2022-07-04T02:21:56;12.90;99.90
23100;DHT22;53791;50.696;4.396;2022-07-04T02:24:24;12.90;99.90
23100;DHT22;53791;50.696;4.396;2022-07-04T02:26:51;12.90;99.90
23100;DHT22;53791;50.696;4.396;2022-07-04T02:29:19;12.90;99.90
23100;DHT22;53791;50.696;4.396;2022-07-04T02:31:46;12.80;99.90
23100;DHT22;53791;50.696;4.396;2022-07-04T02:34:14;12.70;99.90
23100;DHT22;53791;50.696;4.396;2022-07-04T02:36:41;12.70;99.90
23100;DHT22;53791;50.696;4.396;2022-07-04T02:39:09;12.80;99.90
23100;DHT22;53791;50.696;4.396;2022-07-04T02:41:37;12.80;99.90
23100;DHT22;53791;50.696;4.396;2022-07-04T02:44:04;12.70;99.90
23100;DHT22;53791;50.696;4.396;2022-07-04T02:46:32;12.70;99.90
23100;DHT22;53791;50.696;4.396;2022-07-04T02:49:00;12.60;99.90
23100;DHT22;53791;50.696;4.396;2022-07-04T02:51:28;12.60;99.90
23100;DHT22;53791;50.696;4.396;2022-07-04T02:53:56;12.70;99.90
23100;DHT22;53791;50.696;4.396;2022-07-04T02:56:24;12.60;99.90
23100;DHT22;53791;50.696;4.396;2022-07-04T02:58:52;12.60;99.90
23100;DHT22;53791;50.696;4.396;2022-07-04T03:01:19;12.60;99.90
23100;DHT22;53791;50.696;4.396;2022-07-04T03:03:48;12.50;99.90
23100;DHT22;53791;50.696;4.396;2022-07-04T03:06:15;12.50;99.90
23100;DHT22;53791;50.696;4.396;2022-07-04T03:08:43;12.50;99.90
23100;DHT22;53791;50.696;4.396;2022-07-04T03:11:11;12.50;99.90
23100;DHT22;53791;50.696;4.396;2022-07-04T03:13:40;12.50;99.90
23100;DHT22;53791;50.696;4.396;2022-07-04T03:16:08;12.40;99.90
23100;DHT22;53791;50.696;4.396;2022-07-04T03:18:35;12.40;99.90
23100;DHT22;53791;50.696;4.396;2022-07-04T03:21:03;12.40;99.90
23100;DHT22;53791;50.696;4.396;2022-07-04T03:23:32;12.40;99.90
23100;DHT22;53791;50.696;4.396;2022-07-04T03:26:00;12.40;99.90
23100;DHT22;53791;50.696;4.396;2022-07-04T03:28:28;12.30;99.90
23100;DHT22;53791;50.696;4.396;2022-07-04T03:30:55;12.30;99.90
23100;DHT22;53791;50.696;4.396;2022-07-04T03:33:23;12.30;99.90
23100;DHT22;53791;50.696;4.396;2022-07-04T03:35:50;12.30;99.90
23100;DHT22;53791;50.696;4.396;2022-07-04T03:38:18;12.30;99.90
23100;DHT22;53791;50.696;4.396;2022-07-04T03:40:45;12.30;99.90
23100;DHT22;53791;50.696;4.396;2022-07-04T03:43:13;12.20;99.90
23100;DHT22;53791;50.696;4.396;2022-07-04T03:45:40;12.20;99.90
23100;DHT22;53791;50.696;4.396;2022-07-04T03:48:08;12.20;99.90
23100;DHT22;53791;50.696;4.396;2022-07-04T03:50:36;12.20;99.90
23100;DHT22;53791;50.696;4.396;2022-07-04T03:53:03;12.20;99.90
23100;DHT22;53791;50.696;4.396;2022-07-04T03:55:31;12.20;99.90
23100;DHT22;53791;50.696;4.396;2022-07-04T03:57:58;12.20;99.90
23100;DHT22;53791;50.696;4.396;2022-07-04T04:00:26;12.20;99.90
23100;DHT22;53791;50.696;4.396;2022-07-04T04:02:53;12.20;99.90
23100;DHT22;53791;50.696;4.396;2022-07-04T04:05:21;12.40;99.90
23100;DHT22;53791;50.696;4.396;2022-07-04T04:08:00;12.30;99.90
23100;DHT22;53791;50.696;4.396;2022-07-04T04:10:30;12.30;99.90
23100;DHT22;53791;50.696;4.396;2022-07-04T04:12:58;12.30;99.90
23100;DHT22;53791;50.696;4.396;2022-07-04T04:15:26;12.30;99.90
23100;DHT22;53791;50.696;4.396;2022-07-04T04:17:53;12.40;99.90
23100;DHT22;53791;50.696;4.396;2022-07-04T04:20:21;12.40;99.90
23100;DHT22;53791;50.696;4.396;2022-07-04T04:22:49;12.40;99.90
23100;DHT22;53791;50.696;4.396;2022-07-04T04:25:17;12.40;99.90
23100;DHT22;53791;50.696;4.396;2022-07-04T04:27:45;12.40;99.90
23100;DHT22;53791;50.696;4.396;2022-07-04T04:30:12;12.40;99.90
23100;DHT22;53791;50.696;4.396;2022-07-04T04:32:40;12.50;99.90
23100;DHT22;53791;50.696;4.396;2022-07-04T04:35:08;12.50;99.90
23100;DHT22;53791;50.696;4.396;2022-07-04T04:37:35;12.60;99.90
23100;DHT22;53791;50.696;4.396;2022-07-04T04:40:03;12.60;99.90
23100;DHT22;53791;50.696;4.396;2022-07-04T04:42:31;12.70;99.90
23100;DHT22;53791;50.696;4.396;2022-07-04T04:44:59;12.70;99.90
23100;DHT22;53791;50.696;4.396;2022-07-04T04:47:26;12.60;99.90
23100;DHT22;53791;50.696;4.396;2022-07-04T04:49:54;12.60;99.90
23100;DHT22;53791;50.696;4.396;2022-07-04T04:52:21;12.60;99.90
23100;DHT22;53791;50.696;4.396;2022-07-04T04:54:49;12.70;99.90
23100;DHT22;53791;50.696;4.396;2022-07-04T04:57:16;12.70;99.90
23100;DHT22;53791;50.696;4.396;2022-07-04T04:59:44;12.80;99.90
23100;DHT22;53791;50.696;4.396;2022-07-04T05:02:11;12.80;99.90
23100;DHT22;53791;50.696;4.396;2022-07-04T05:04:39;13.00;99.90
23100;DHT22;53791;50.696;4.396;2022-07-04T05:07:06;13.10;99.90
23100;DHT22;53791;50.696;4.396;2022-07-04T05:09:34;13.30;99.90
23100;DHT22;53791;50.696;4.396;2022-07-04T05:12:02;13.30;99.90
23100;DHT22;53791;50.696;4.396;2022-07-04T05:14:29;13.40;99.90
23100;DHT22;53791;50.696;4.396;2022-07-04T05:16:57;13.40;99.90
23100;DHT22;53791;50.696;4.396;2022-07-04T05:19:24;13.50;99.90
23100;DHT22;53791;50.696;4.396;2022-07-04T05:21:52;13.60;99.90
23100;DHT22;53791;50.696;4.396;2022-07-04T05:24:19;13.70;99.90
23100;DHT22;53791;50.696;4.396;2022-07-04T05:26:47;13.80;99.90
23100;DHT22;53791;50.696;4.396;2022-07-04T05:29:14;14.00;99.90
23100;DHT22;53791;50.696;4.396;2022-07-04T05:31:43;14.10;99.90
23100;DHT22;53791;50.696;4.396;2022-07-04T05:34:10;14.30;99.90
23100;DHT22;53791;50.696;4.396;2022-07-04T05:36:38;14.40;99.90
23100;DHT22;53791;50.696;4.396;2022-07-04T05:39:05;14.60;99.90
23100;DHT22;53791;50.696;4.396;2022-07-04T05:41:33;14.80;99.90
23100;DHT22;53791;50.696;4.396;2022-07-04T05:44:00;15.00;99.90
23100;DHT22;53791;50.696;4.396;2022-07-04T05:46:28;15.30;99.90
23100;DHT22;53791;50.696;4.396;2022-07-04T05:48:55;15.60;99.90
23100;DHT22;53791;50.696;4.396;2022-07-04T05:51:23;16.20;99.90
23100;DHT22;53791;50.696;4.396;2022-07-04T05:53:50;16.70;99.90
23100;DHT22;53791;50.696;4.396;2022-07-04T05:56:18;17.60;99.90
23100;DHT22;53791;50.696;4.396;2022-07-04T05:58:46;18.50;99.90
23100;DHT22;53791;50.696;4.396;2022-07-04T06:01:13;19.50;99.90
23100;DHT22;53791;50.696;4.396;2022-07-04T06:03:41;20.40;99.90
23100;DHT22;53791;50.696;4.396;2022-07-04T06:06:08;20.90;99.90
23100;DHT22;53791;50.696;4.396;2022-07-04T06:08:36;21.30;99.90
23100;DHT22;53791;50.696;4.396;2022-07-04T06:11:04;21.80;99.90
23100;DHT22;53791;50.696;4.396;2022-07-04T06:13:31;21.90;99.90
23100;DHT22;53791;50.696;4.396;2022-07-04T06:15:59;22.50;99.90
23100;DHT22;53791;50.696;4.396;2022-07-04T06:18:26;22.80;99.90
23100;DHT22;53791;50.696;4.396;2022-07-04T06:20:54;23.00;99.90
23100;DHT22;53791;50.696;4.396;2022-07-04T06:23:21;23.00;99.90
23100;DHT22;53791;50.696;4.396;2022-07-04T06:25:49;23.20;99.90
23100;DHT22;53791;50.696;4.396;2022-07-04T06:28:16;23.70;99.90
23100;DHT22;53791;50.696;4.396;2022-07-04T06:30:44;24.00;99.90
23100;DHT22;53791;50.696;4.396;2022-07-04T06:33:11;24.20;99.90
23100;DHT22;53791;50.696;4.396;2022-07-04T06:35:39;24.20;99.90
23100;DHT22;53791;50.696;4.396;2022-07-04T06:38:26;24.50;99.90
23100;DHT22;53791;50.696;4.396;2022-07-04T06:40:56;24.90;99.90
23100;DHT22;53791;50.696;4.396;2022-07-04T06:43:24;24.80;99.90
23100;DHT22;53791;50.696;4.396;2022-07-04T06:45:52;24.80;99.90
23100;DHT22;53791;50.696;4.396;2022-07-04T06:48:19;24.70;99.90
23100;DHT22;53791;50.696;4.396;2022-07-04T06:50:47;25.20;99.90
23100;DHT22;53791;50.696;4.396;2022-07-04T06:53:15;25.30;99.90
23100;DHT22;53791;50.696;4.396;2022-07-04T06:55:46;25.20;99.90
23100;DHT22;53791;50.696;4.396;2022-07-04T06:58:14;25.10;99.90
23100;DHT22;53791;50.696;4.396;2022-07-04T07:00:42;25.40;99.90
23100;DHT22;53791;50.696;4.396;2022-07-04T07:03:10;25.90;99.90
23100;DHT22;53791;50.696;4.396;2022-07-04T07:05:38;26.50;99.90
23100;DHT22;53791;50.696;4.396;2022-07-04T07:08:06;26.10;99.90
23100;DHT22;53791;50.696;4.396;2022-07-04T07:10:33;26.50;99.90
23100;DHT22;53791;50.696;4.396;2022-07-04T07:13:02;27.10;99.90
23100;DHT22;53791;50.696;4.396;2022-07-04T07:15:30;27.70;99.90
23100;DHT22;53791;50.696;4.396;2022-07-04T07:17:59;28.00;99.90
23100;DHT22;53791;50.696;4.396;2022-07-04T07:20:27;27.90;99.90
23100;DHT22;53791;50.696;4.396;2022-07-04T07:22:54;28.10;99.90
23100;DHT22;53791;50.696;4.396;2022-07-04T07:25:22;27.60;99.90
23100;DHT22;53791;50.696;4.396;2022-07-04T07:27:49;27.40;99.90
23100;DHT22;53791;50.696;4.396;2022-07-04T07:30:17;28.10;99.90
23100;DHT22;53791;50.696;4.396;2022-07-04T07:32:44;28.80;99.90
23100;DHT22;53791;50.696;4.396;2022-07-04T07:35:12;28.50;99.90
23100;DHT22;53791;50.696;4.396;2022-07-04T07:37:41;28.10;99.90
23100;DHT22;53791;50.696;4.396;2022-07-04T07:40:09;28.20;99.90
23100;DHT22;53791;50.696;4.396;2022-07-04T07:42:37;28.40;99.90
23100;DHT22;53791;50.696;4.396;2022-07-04T07:45:05;28.80;99.90
23100;DHT22;53791;50.696;4.396;2022-07-04T07:47:33;28.00;99.90
23100;DHT22;53791;50.696;4.396;2022-07-04T07:50:00;27.30;99.90
23100;DHT22;53791;50.696;4.396;2022-07-04T07:52:30;27.40;99.90
23100;DHT22;53791;50.696;4.396;2022-07-04T07:54:57;28.10;99.90
23100;DHT22;53791;50.696;4.396;2022-07-04T07:57:25;28.10;99.90
23100;DHT22;53791;50.696;4.396;2022-07-04T07:59:53;28.50;99.90
23100;DHT22;53791;50.696;4.396;2022-07-04T08:02:21;28.70;99.90
23100;DHT22;53791;50.696;4.396;2022-07-04T08:04:50;28.30;99.90
23100;DHT22;53791;50.696;4.396;2022-07-04T08:07:17;27.50;99.90
23100;DHT22;53791;50.696;4.396;2022-07-04T08:09:45;27.90;99.90
23100;DHT22;53791;50.696;4.396;2022-07-04T08:12:12;27.60;99.90
23100;DHT22;53791;50.696;4.396;2022-07-04T08:14:40;26.50;99.90
23100;DHT22;53791;50.696;4.396;2022-07-04T08:17:07;26.40;99.90
23100;DHT22;53791;50.696;4.396;2022-07-04T08:19:36;27.10;99.90
23100;DHT22;53791;50.696;4.396;2022-07-04T08:22:04;28.10;99.90
23100;DHT22;53791;50.696;4.396;2022-07-04T08:24:32;28.50;99.90
23100;DHT22;53791;50.696;4.396;2022-07-04T08:26:59;28.70;99.90
23100;DHT22;53791;50.696;4.396;2022-07-04T08:29:27;29.40;99.90
23100;DHT22;53791;50.696;4.396;2022-07-04T08:31:56;29.10;99.90
23100;DHT22;53791;50.696;4.396;2022-07-04T08:34:23;27.80;99.90
23100;DHT22;53791;50.696;4.396;2022-07-04T08:36:51;27.40;99.90
23100;DHT22;53791;50.696;4.396;2022-07-04T08:39:18;27.30;99.90
23100;DHT22;53791;50.696;4.396;2022-07-04T08:41:46;26.90;99.90
23100;DHT22;53791;50.696;4.396;2022-07-04T08:44:14;27.10;99.90
23100;DHT22;53791;50.696;4.396;2022-07-04T08:46:42;27.30;99.90
23100;DHT22;53791;50.696;4.396;2022-07-04T08:49:21;27.90;99.90
23100;DHT22;53791;50.696;4.396;2022-07-04T08:52:01;28.30;99.90
23100;DHT22;53791;50.696;4.396;2022-07-04T08:54:32;26.90;99.90
23100;DHT22;53791;50.696;4.396;2022-07-04T08:57:21;27.70;99.90
23100;DHT22;53791;50.696;4.396;2022-07-04T09:00:08;27.70;99.90
23100;DHT22;53791;50.696;4.396;2022-07-04T09:02:36;26.90;99.90
23100;DHT22;53791;50.696;4.396;2022-07-04T09:05:04;26.70;99.90
23100;DHT22;53791;50.696;4.396;2022-07-04T09:07:32;27.10;99.90
23100;DHT22;53791;50.696;4.396;2022-07-04T09:10:00;26.40;99.90
23100;DHT22;53791;50.696;4.396;2022-07-04T09:12:29;26.40;99.90
23100;DHT22;53791;50.696;4.396;2022-07-04T09:14:57;27.10;99.90
23100;DHT22;53791;50.696;4.396;2022-07-04T09:17:25;27.40;99.90
23100;DHT22;53791;50.696;4.396;2022-07-04T09:20:14;27.60;99.90
23100;DHT22;53791;50.696;4.396;2022-07-04T09:22:42;28.00;99.90
23100;DHT22;53791;50.696;4.396;2022-07-04T09:25:10;28.30;99.90
23100;DHT22;53791;50.696;4.396;2022-07-04T09:27:43;28.90;99.90
23100;DHT22;53791;50.696;4.396;2022-07-04T09:30:23;28.60;99.90
23100;DHT22;53791;50.696;4.396;2022-07-04T09:32:50;28.00;99.90
23100;DHT22;53791;50.696;4.396;2022-07-04T09:35:22;26.90;99.90
23100;DHT22;53791;50.696;4.396;2022-07-04T09:37:52;26.10;99.90
23100;DHT22;53791;50.696;4.396;2022-07-04T09:40:27;26.60;99.90
23100;DHT22;53791;50.696;4.396;2022-07-04T09:42:57;27.20;99.90
23100;DHT22;53791;50.696;4.396;2022-07-04T09:45:26;27.70;99.90
23100;DHT22;53791;50.696;4.396;2022-07-04T09:47:56;27.70;99.90
23100;DHT22;53791;50.696;4.396;2022-07-04T09:50:26;27.00;99.90
23100;DHT22;53791;50.696;4.396;2022-07-04T09:52:57;26.70;99.90
23100;DHT22;53791;50.696;4.396;2022-07-04T09:55:27;26.80;99.90
23100;DHT22;53791;50.696;4.396;2022-07-04T09:57:58;26.90;99.90
23100;DHT22;53791;50.696;4.396;2022-07-04T10:00:35;27.20;99.90
23100;DHT22;53791;50.696;4.396;2022-07-04T10:05:38;28.10;99.90
23100;DHT22;53791;50.696;4.396;2022-07-04T10:08:06;28.10;99.90
23100;DHT22;53791;50.696;4.396;2022-07-04T10:10:35;27.70;99.90
23100;DHT22;53791;50.696;4.396;2022-07-04T10:13:10;28.20;99.90
23100;DHT22;53791;50.696;4.396;2022-07-04T10:15:38;27.40;99.90
23100;DHT22;53791;50.696;4.396;2022-07-04T10:18:07;28.20;99.90
23100;DHT22;53791;50.696;4.396;2022-07-04T10:20:36;28.40;99.90
23100;DHT22;53791;50.696;4.396;2022-07-04T10:23:04;27.60;99.90
23100;DHT22;53791;50.696;4.396;2022-07-04T10:25:32;27.50;99.90
23100;DHT22;53791;50.696;4.396;2022-07-04T10:27:59;28.20;99.90
23100;DHT22;53791;50.696;4.396;2022-07-04T10:30:29;28.40;99.90
23100;DHT22;53791;50.696;4.396;2022-07-04T10:33:02;27.60;99.90
23100;DHT22;53791;50.696;4.396;2022-07-04T10:35:52;27.50;99.90
23100;DHT22;53791;50.696;4.396;2022-07-04T10:38:24;26.90;99.90
23100;DHT22;53791;50.696;4.396;2022-07-04T10:40:55;27.70;99.90
23100;DHT22;53791;50.696;4.396;2022-07-04T10:43:37;28.30;99.90
23100;DHT22;53791;50.696;4.396;2022-07-04T10:51:42;28.20;99.90
23100;DHT22;53791;50.696;4.396;2022-07-04T10:54:10;28.10;99.90
23100;DHT22;53791;50.696;4.396;2022-07-04T10:56:40;27.90;99.90
23100;DHT22;53791;50.696;4.396;2022-07-04T10:59:13;27.10;99.90
23100;DHT22;53791;50.696;4.396;2022-07-04T11:01:52;27.20;99.90
23100;DHT22;53791;50.696;4.396;2022-07-04T11:04:47;27.90;99.90
23100;DHT22;53791;50.696;4.396;2022-07-04T11:07:19;28.40;99.90
23100;DHT22;53791;50.696;4.396;2022-07-04T11:12:51;27.70;99.90
23100;DHT22;53791;50.696;4.396;2022-07-04T11:17:56;27.70;99.90
23100;DHT22;53791;50.696;4.396;2022-07-04T11:20:24;28.30;99.90
23100;DHT22;53791;50.696;4.396;2022-07-04T11:23:06;27.70;99.90
23100;DHT22;53791;50.696;4.396;2022-07-04T11:28:24;27.50;99.90
23100;DHT22;53791;50.696;4.396;2022-07-04T11:30:53;28.20;99.90
23100;DHT22;53791;50.696;4.396;2022-07-04T11:33:23;28.40;99.90
23100;DHT22;53791;50.696;4.396;2022-07-04T11:36:08;27.90;99.90
23100;DHT22;53791;50.696;4.396;2022-07-04T11:38:53;27.90;99.90
23100;DHT22;53791;50.696;4.396;2022-07-04T11:44:16;28.50;99.90
23100;DHT22;53791;50.696;4.396;2022-07-04T11:47:15;28.20;99.90
23100;DHT22;53791;50.696;4.396;2022-07-04T11:49:53;27.30;99.90
23100;DHT22;53791;50.696;4.396;2022-07-04T11:52:23;27.20;99.90
23100;DHT22;53791;50.696;4.396;2022-07-04T11:54:54;28.00;99.90
23100;DHT22;53791;50.696;4.396;2022-07-04T11:57:26;27.60;99.90
23100;DHT22;53791;50.696;4.396;2022-07-04T12:00:05;27.00;99.90
23100;DHT22;53791;50.696;4.396;2022-07-04T12:02:35;27.50;99.90
23100;DHT22;53791;50.696;4.396;2022-07-04T12:05:06;28.20;99.90
23100;DHT22;53791;50.696;4.396;2022-07-04T12:07:39;28.40;99.90
23100;DHT22;53791;50.696;4.396;2022-07-04T12:10:10;27.80;99.90
23100;DHT22;53791;50.696;4.396;2022-07-04T12:13:02;27.60;99.90
23100;DHT22;53791;50.696;4.396;2022-07-04T12:15:39;26.50;99.90
23100;DHT22;53791;50.696;4.396;2022-07-04T12:20:52;26.80;99.90
23100;DHT22;53791;50.696;4.396;2022-07-04T12:23:21;27.50;99.90
23100;DHT22;53791;50.696;4.396;2022-07-04T12:25:51;27.80;99.90
23100;DHT22;53791;50.696;4.396;2022-07-04T12:28:20;28.20;99.90
23100;DHT22;53791;50.696;4.396;2022-07-04T12:30:53;28.40;99.90
23100;DHT22;53791;50.696;4.396;2022-07-04T12:33:22;28.50;99.90
23100;DHT22;53791;50.696;4.396;2022-07-04T12:35:52;27.50;99.90
23100;DHT22;53791;50.696;4.396;2022-07-04T12:41:07;27.80;99.90
23100;DHT22;53791;50.696;4.396;2022-07-04T12:48:54;27.60;99.90
23100;DHT22;53791;50.696;4.396;2022-07-04T12:51:29;28.20;99.90
23100;DHT22;53791;50.696;4.396;2022-07-04T12:53:56;28.70;99.90
23100;DHT22;53791;50.696;4.396;2022-07-04T12:56:32;28.50;99.90
23100;DHT22;53791;50.696;4.396;2022-07-04T12:59:03;28.20;99.90
23100;DHT22;53791;50.696;4.396;2022-07-04T13:01:30;28.20;99.90
23100;DHT22;53791;50.696;4.396;2022-07-04T13:03:58;28.30;99.90
23100;DHT22;53791;50.696;4.396;2022-07-04T13:06:26;28.40;99.90
23100;DHT22;53791;50.696;4.396;2022-07-04T13:08:54;28.00;99.90
23100;DHT22;53791;50.696;4.396;2022-07-04T13:11:23;27.40;99.90
23100;DHT22;53791;50.696;4.396;2022-07-04T13:14:09;27.30;99.90
23100;DHT22;53791;50.696;4.396;2022-07-04T13:16:36;26.60;99.90
23100;DHT22;53791;50.696;4.396;2022-07-04T13:19:04;26.30;99.90
23100;DHT22;53791;50.696;4.396;2022-07-04T13:21:31;26.20;99.90
23100;DHT22;53791;50.696;4.396;2022-07-04T13:23:59;26.60;99.90
23100;DHT22;53791;50.696;4.396;2022-07-04T13:26:26;26.80;99.90
23100;DHT22;53791;50.696;4.396;2022-07-04T13:28:56;26.60;99.90
23100;DHT22;53791;50.696;4.396;2022-07-04T13:31:24;26.40;99.90
23100;DHT22;53791;50.696;4.396;2022-07-04T13:33:53;26.90;99.90
23100;DHT22;53791;50.696;4.396;2022-07-04T13:36:21;26.90;99.90
23100;DHT22;53791;50.696;4.396;2022-07-04T13:38:48;26.60;99.90
23100;DHT22;53791;50.696;4.396;2022-07-04T13:41:16;26.50;99.90
23100;DHT22;53791;50.696;4.396;2022-07-04T13:43:43;26.60;99.90
23100;DHT22;53791;50.696;4.396;2022-07-04T13:46:11;26.70;99.90
23100;DHT22;53791;50.696;4.396;2022-07-04T13:48:39;26.90;99.90
23100;DHT22;53791;50.696;4.396;2022-07-04T13:51:06;27.10;99.90
23100;DHT22;53791;50.696;4.396;2022-07-04T13:53:34;27.60;99.90
23100;DHT22;53791;50.696;4.396;2022-07-04T13:56:03;27.50;99.90
23100;DHT22;53791;50.696;4.396;2022-07-04T13:58:31;26.90;99.90
23100;DHT22;53791;50.696;4.396;2022-07-04T14:00:58;26.60;99.90
23100;DHT22;53791;50.696;4.396;2022-07-04T14:03:26;26.40;99.90
23100;DHT22;53791;50.696;4.396;2022-07-04T14:05:53;26.20;99.90
23100;DHT22;53791;50.696;4.396;2022-07-04T14:08:25;26.10;99.90
23100;DHT22;53791;50.696;4.396;2022-07-04T14:10:56;25.90;99.90
23100;DHT22;53791;50.696;4.396;2022-07-04T14:13:24;25.50;99.90
23100;DHT22;53791;50.696;4.396;2022-07-04T14:15:52;25.90;99.90
23100;DHT22;53791;50.696;4.396;2022-07-04T14:18:20;26.40;99.90
23100;DHT22;53791;50.696;4.396;2022-07-04T14:20:47;26.90;99.90
23100;DHT22;53791;50.696;4.396;2022-07-04T14:23:18;27.00;99.90
23100;DHT22;53791;50.696;4.396;2022-07-04T14:25:47;26.90;99.90
23100;DHT22;53791;50.696;4.396;2022-07-04T14:28:15;26.70;99.90
23100;DHT22;53791;50.696;4.396;2022-07-04T14:30:42;26.70;99.90
23100;DHT22;53791;50.696;4.396;2022-07-04T14:33:10;27.10;99.90
23100;DHT22;53791;50.696;4.396;2022-07-04T14:35:37;27.40;99.90
23100;DHT22;53791;50.696;4.396;2022-07-04T14:38:05;27.40;99.90
23100;DHT22;53791;50.696;4.396;2022-07-04T14:40:32;28.00;99.90
23100;DHT22;53791;50.696;4.396;2022-07-04T14:43:00;27.80;99.90
23100;DHT22;53791;50.696;4.396;2022-07-04T14:45:27;27.60;99.90
23100;DHT22;53791;50.696;4.396;2022-07-04T14:47:55;27.90;99.90
23100;DHT22;53791;50.696;4.396;2022-07-04T14:50:23;27.90;99.90
23100;DHT22;53791;50.696;4.396;2022-07-04T14:52:50;27.90;99.90
23100;DHT22;53791;50.696;4.396;2022-07-04T14:55:18;28.40;99.90
23100;DHT22;53791;50.696;4.396;2022-07-04T14:57:46;28.40;99.90
23100;DHT22;53791;50.696;4.396;2022-07-04T15:00:13;27.20;99.90
23100;DHT22;53791;50.696;4.396;2022-07-04T15:02:41;26.80;99.90
23100;DHT22;53791;50.696;4.396;2022-07-04T15:05:09;26.60;99.90
23100;DHT22;53791;50.696;4.396;2022-07-04T15:07:36;26.90;99.90
23100;DHT22;53791;50.696;4.396;2022-07-04T15:10:06;26.70;99.90
23100;DHT22;53791;50.696;4.396;2022-07-04T15:12:36;26.60;99.90
23100;DHT22;53791;50.696;4.396;2022-07-04T15:15:05;26.80;99.90
23100;DHT22;53791;50.696;4.396;2022-07-04T15:17:33;27.00;99.90
23100;DHT22;53791;50.696;4.396;2022-07-04T15:20:02;26.30;99.90
23100;DHT22;53791;50.696;4.396;2022-07-04T15:22:47;26.40;99.90
23100;DHT22;53791;50.696;4.396;2022-07-04T15:25:25;26.50;99.90
23100;DHT22;53791;50.696;4.396;2022-07-04T15:27:53;25.90;99.90
23100;DHT22;53791;50.696;4.396;2022-07-04T15:30:20;26.20;99.90
23100;DHT22;53791;50.696;4.396;2022-07-04T15:32:48;25.70;99.90
23100;DHT22;53791;50.696;4.396;2022-07-04T15:35:16;25.30;99.90
23100;DHT22;53791;50.696;4.396;2022-07-04T15:37:43;25.10;99.90
23100;DHT22;53791;50.696;4.396;2022-07-04T15:40:11;25.40;99.90
23100;DHT22;53791;50.696;4.396;2022-07-04T15:42:39;25.70;99.90
23100;DHT22;53791;50.696;4.396;2022-07-04T15:45:07;25.30;99.90
23100;DHT22;53791;50.696;4.396;2022-07-04T15:47:34;25.40;99.90
23100;DHT22;53791;50.696;4.396;2022-07-04T15:50:02;25.20;99.90
23100;DHT22;53791;50.696;4.396;2022-07-04T15:52:30;24.90;99.90
23100;DHT22;53791;50.696;4.396;2022-07-04T15:54:57;24.20;99.90
23100;DHT22;53791;50.696;4.396;2022-07-04T15:57:25;24.10;99.90
23100;DHT22;53791;50.696;4.396;2022-07-04T15:59:53;23.80;99.90
23100;DHT22;53791;50.696;4.396;2022-07-04T16:02:20;23.60;99.90
23100;DHT22;53791;50.696;4.396;2022-07-04T16:04:48;23.50;99.90
23100;DHT22;53791;50.696;4.396;2022-07-04T16:07:15;23.80;99.90
23100;DHT22;53791;50.696;4.396;2022-07-04T16:09:45;24.10;99.90
23100;DHT22;53791;50.696;4.396;2022-07-04T16:12:12;24.30;99.90